sensor_id;sensor_type;location;lat;lon;timestamp;pressure;altitude;pressure_sealevel;temperature;humidity
39357;BME280;25077;50.302;18.996;2022-12-29T00:01:20;98119.22;;;2.28;57.79
39357;BME280;25077;50.302;18.996;2022-12-29T00:04:22;98117.94;;;2.25;58.03
39357;BME280;25077;50.302;18.996;2022-12-29T00:07:26;98124.19;;;2.21;57.62
39357;BME280;25077;50.302;18.996;2022-12-29T00:14:54;98122.50;;;2.25;57.73
39357;BME280;25077;50.302;18.996;2022-12-29T00:18:14;98127.97;;;2.20;58.06
39357;BME280;25077;50.302;18.996;2022-12-29T00:21:19;98129.69;;;2.16;58.33
39357;BME280;25077;50.302;18.996;2022-12-29T00:24:40;98129.63;;;2.07;58.97
39357;BME280;25077;50.302;18.996;2022-12-29T00:27:59;98120.97;;;2.01;59.45
39357;BME280;25077;50.302;18.996;2022-12-29T00:31:18;98119.06;;;2.02;59.93
39357;BME280;25077;50.302;18.996;2022-12-29T00:34:47;98120.75;;;1.98;59.96
39357;BME280;25077;50.302;18.996;2022-12-29T00:43:39;98109.72;;;1.91;60.51
39357;BME280;25077;50.302;18.996;2022-12-29T00:46:59;98097.00;;;1.88;60.50
39357;BME280;25077;50.302;18.996;2022-12-29T00:50:04;98095.13;;;1.88;60.37
39357;BME280;25077;50.302;18.996;2022-12-29T00:53:06;98092.25;;;1.85;60.95
39357;BME280;25077;50.302;18.996;2022-12-29T00:58:01;98096.34;;;1.82;61.04
39357;BME280;25077;50.302;18.996;2022-12-29T01:01:06;98091.00;;;1.82;61.02
39357;BME280;25077;50.302;18.996;2022-12-29T01:04:09;98094.13;;;1.84;61.08
39357;BME280;25077;50.302;18.996;2022-12-29T01:07:11;98084.25;;;1.85;60.88
39357;BME280;25077;50.302;18.996;2022-12-29T01:10:13;98085.34;;;1.84;60.87
39357;BME280;25077;50.302;18.996;2022-12-29T01:13:15;98087.69;;;1.85;60.91
39357;BME280;25077;50.302;18.996;2022-12-29T01:16:19;98081.25;;;1.86;60.65
39357;BME280;25077;50.302;18.996;2022-12-29T01:19:21;98084.25;;;1.85;60.93
39357;BME280;25077;50.302;18.996;2022-12-29T01:22:23;98079.09;;;1.88;60.40
39357;BME280;25077;50.302;18.996;2022-12-29T01:25:25;98085.22;;;1.89;61.04
39357;BME280;25077;50.302;18.996;2022-12-29T01:28:27;98105.69;;;1.93;60.82
39357;BME280;25077;50.302;18.996;2022-12-29T01:31:31;98101.91;;;1.94;60.79
39357;BME280;25077;50.302;18.996;2022-12-29T01:34:33;98108.19;;;1.98;61.20
39357;BME280;25077;50.302;18.996;2022-12-29T01:37:38;98116.22;;;1.98;60.93
39357;BME280;25077;50.302;18.996;2022-12-29T01:45:09;98123.19;;;2.08;60.72
39357;BME280;25077;50.302;18.996;2022-12-29T01:48:13;98125.53;;;2.10;60.72
39357;BME280;25077;50.302;18.996;2022-12-29T01:51:16;98114.63;;;1.97;60.71
39357;BME280;25077;50.302;18.996;2022-12-29T01:54:21;98113.53;;;1.98;60.94
39357;BME280;25077;50.302;18.996;2022-12-29T01:57:26;98109.78;;;1.99;61.48
39357;BME280;25077;50.302;18.996;2022-12-29T02:00:30;98104.94;;;2.01;60.98
39357;BME280;25077;50.302;18.996;2022-12-29T02:03:34;98100.69;;;2.00;60.78
39357;BME280;25077;50.302;18.996;2022-12-29T02:06:41;98090.78;;;2.01;61.15
39357;BME280;25077;50.302;18.996;2022-12-29T02:14:13;98069.59;;;2.05;61.03
39357;BME280;25077;50.302;18.996;2022-12-29T02:17:20;98066.78;;;2.10;61.06
39357;BME280;25077;50.302;18.996;2022-12-29T02:29:50;98050.41;;;2.02;60.79
39357;BME280;25077;50.302;18.996;2022-12-29T02:33:05;98061.88;;;2.03;61.21
39357;BME280;25077;50.302;18.996;2022-12-29T02:36:15;98065.78;;;1.97;61.31
39357;BME280;25077;50.302;18.996;2022-12-29T02:39:28;98061.06;;;1.94;61.13
39357;BME280;25077;50.302;18.996;2022-12-29T02:42:36;98050.97;;;1.91;61.88
39357;BME280;25077;50.302;18.996;2022-12-29T02:45:49;98058.66;;;1.92;61.72
39357;BME280;25077;50.302;18.996;2022-12-29T02:49:01;98057.09;;;1.91;61.50
39357;BME280;25077;50.302;18.996;2022-12-29T02:52:11;98056.13;;;1.87;61.72
39357;BME280;25077;50.302;18.996;2022-12-29T02:59:43;98049.88;;;1.92;61.72
39357;BME280;25077;50.302;18.996;2022-12-29T03:02:58;98067.34;;;1.98;61.67
39357;BME280;25077;50.302;18.996;2022-12-29T03:06:30;98057.94;;;2.00;61.66
39357;BME280;25077;50.302;18.996;2022-12-29T03:09:39;98063.88;;;1.97;60.93
39357;BME280;25077;50.302;18.996;2022-12-29T03:12:48;98048.69;;;2.07;61.45
39357;BME280;25077;50.302;18.996;2022-12-29T03:16:19;98036.91;;;2.08;61.07
39357;BME280;25077;50.302;18.996;2022-12-29T03:19:26;98048.22;;;2.05;60.68
39357;BME280;25077;50.302;18.996;2022-12-29T03:22:38;98040.81;;;2.01;61.68
39357;BME280;25077;50.302;18.996;2022-12-29T03:30:15;98050.72;;;2.01;61.28
39357;BME280;25077;50.302;18.996;2022-12-29T03:33:20;98047.72;;;2.02;61.09
39357;BME280;25077;50.302;18.996;2022-12-29T03:36:29;98043.66;;;2.05;61.35
39357;BME280;25077;50.302;18.996;2022-12-29T03:39:34;98038.63;;;2.03;60.99
39357;BME280;25077;50.302;18.996;2022-12-29T03:42:37;98033.59;;;2.02;61.71
39357;BME280;25077;50.302;18.996;2022-12-29T03:45:40;98026.81;;;1.96;61.88
39357;BME280;25077;50.302;18.996;2022-12-29T03:48:42;98026.03;;;1.95;61.71
39357;BME280;25077;50.302;18.996;2022-12-29T03:51:44;98017.53;;;1.93;62.05
39357;BME280;25077;50.302;18.996;2022-12-29T03:59:16;98006.00;;;1.84;62.02
39357;BME280;25077;50.302;18.996;2022-12-29T04:02:19;97995.94;;;1.81;62.59
39357;BME280;25077;50.302;18.996;2022-12-29T04:05:21;97995.47;;;1.79;62.42
39357;BME280;25077;50.302;18.996;2022-12-29T04:08:26;97992.03;;;1.87;62.61
39357;BME280;25077;50.302;18.996;2022-12-29T04:15:58;97982.63;;;1.90;62.11
39357;BME280;25077;50.302;18.996;2022-12-29T04:19:02;97984.53;;;1.89;62.46
39357;BME280;25077;50.302;18.996;2022-12-29T04:22:04;97983.56;;;1.85;61.97
39357;BME280;25077;50.302;18.996;2022-12-29T04:25:08;97978.53;;;1.92;61.84
39357;BME280;25077;50.302;18.996;2022-12-29T04:28:11;97988.44;;;1.92;62.39
39357;BME280;25077;50.302;18.996;2022-12-29T04:31:15;97992.03;;;1.87;61.96
39357;BME280;25077;50.302;18.996;2022-12-29T04:34:19;97987.50;;;1.88;62.07
39357;BME280;25077;50.302;18.996;2022-12-29T04:37:22;97968.38;;;1.94;62.31
39357;BME280;25077;50.302;18.996;2022-12-29T04:44:55;97972.94;;;2.02;62.08
39357;BME280;25077;50.302;18.996;2022-12-29T04:48:13;97981.59;;;1.99;61.91
39357;BME280;25077;50.302;18.996;2022-12-29T04:51:28;97975.28;;;2.04;61.54
39357;BME280;25077;50.302;18.996;2022-12-29T04:54:30;97971.38;;;2.01;61.93
39357;BME280;25077;50.302;18.996;2022-12-29T04:59:01;97968.22;;;1.99;61.58
39357;BME280;25077;50.302;18.996;2022-12-29T05:02:03;97959.25;;;2.04;62.12
39357;BME280;25077;50.302;18.996;2022-12-29T05:05:09;97950.31;;;2.09;61.77
39357;BME280;25077;50.302;18.996;2022-12-29T05:08:15;97957.22;;;2.10;62.00
39357;BME280;25077;50.302;18.996;2022-12-29T05:11:17;97958.34;;;2.09;61.53
39357;BME280;25077;50.302;18.996;2022-12-29T05:14:22;97962.94;;;2.17;61.77
39357;BME280;25077;50.302;18.996;2022-12-29T05:17:24;97975.06;;;2.23;61.60
39357;BME280;25077;50.302;18.996;2022-12-29T05:20:29;97977.72;;;2.23;61.27
39357;BME280;25077;50.302;18.996;2022-12-29T05:23:31;97976.00;;;2.27;62.14
39357;BME280;25077;50.302;18.996;2022-12-29T05:31:23;97963.88;;;2.21;61.68
39357;BME280;25077;50.302;18.996;2022-12-29T05:34:25;97964.03;;;2.16;61.38
39357;BME280;25077;50.302;18.996;2022-12-29T05:37:29;97953.81;;;2.18;61.44
39357;BME280;25077;50.302;18.996;2022-12-29T05:40:31;97937.78;;;2.18;61.72
39357;BME280;25077;50.302;18.996;2022-12-29T05:43:37;97941.38;;;2.13;61.72
39357;BME280;25077;50.302;18.996;2022-12-29T05:47:14;97935.25;;;2.13;61.23
39357;BME280;25077;50.302;18.996;2022-12-29T05:50:47;97934.66;;;2.16;61.53
39357;BME280;25077;50.302;18.996;2022-12-29T05:53:52;97952.09;;;2.22;61.40
39357;BME280;25077;50.302;18.996;2022-12-29T06:00:54;97928.69;;;2.36;61.29
39357;BME280;25077;50.302;18.996;2022-12-29T06:03:56;97924.16;;;2.45;61.36
39357;BME280;25077;50.302;18.996;2022-12-29T06:06:58;97908.75;;;2.51;60.87
39357;BME280;25077;50.302;18.996;2022-12-29T06:10:11;97917.56;;;2.60;61.54
39357;BME280;25077;50.302;18.996;2022-12-29T06:13:21;97908.13;;;2.71;60.37
39357;BME280;25077;50.302;18.996;2022-12-29T06:16:24;97910.50;;;2.73;59.63
39357;BME280;25077;50.302;18.996;2022-12-29T06:19:30;97913.00;;;2.87;60.59
39357;BME280;25077;50.302;18.996;2022-12-29T06:22:33;97899.47;;;2.92;59.95
39357;BME280;25077;50.302;18.996;2022-12-29T06:30:05;97920.38;;;2.98;59.96
39357;BME280;25077;50.302;18.996;2022-12-29T06:33:07;97918.66;;;3.02;60.18
39357;BME280;25077;50.302;18.996;2022-12-29T06:36:09;97928.09;;;3.08;59.91
39357;BME280;25077;50.302;18.996;2022-12-29T06:39:12;97932.50;;;3.13;58.43
39357;BME280;25077;50.302;18.996;2022-12-29T06:47:00;97918.94;;;3.09;58.16
39357;BME280;25077;50.302;18.996;2022-12-29T06:50:02;97914.53;;;3.14;59.35
39357;BME280;25077;50.302;18.996;2022-12-29T06:53:04;97914.53;;;3.14;58.82
39357;BME280;25077;50.302;18.996;2022-12-29T06:56:07;97899.59;;;3.13;59.38
39357;BME280;25077;50.302;18.996;2022-12-29T06:59:09;97902.06;;;3.18;59.32
39357;BME280;25077;50.302;18.996;2022-12-29T07:02:13;97898.78;;;3.21;59.55
39357;BME280;25077;50.302;18.996;2022-12-29T07:05:17;97891.69;;;3.25;60.06
39357;BME280;25077;50.302;18.996;2022-12-29T07:08:19;97893.72;;;3.28;58.80
39357;BME280;25077;50.302;18.996;2022-12-29T07:15:49;97901.41;;;3.38;58.94
39357;BME280;25077;50.302;18.996;2022-12-29T07:18:53;97908.16;;;3.44;58.42
39357;BME280;25077;50.302;18.996;2022-12-29T07:21:55;97905.66;;;3.48;58.65
39357;BME280;25077;50.302;18.996;2022-12-29T07:24:57;97924.50;;;3.51;58.66
39357;BME280;25077;50.302;18.996;2022-12-29T07:32:27;97922.16;;;3.58;59.73
39357;BME280;25077;50.302;18.996;2022-12-29T07:35:31;97930.63;;;3.60;59.18
39357;BME280;25077;50.302;18.996;2022-12-29T07:38:33;97923.38;;;3.61;58.63
39357;BME280;25077;50.302;18.996;2022-12-29T07:41:35;97934.56;;;3.63;58.90
39357;BME280;25077;50.302;18.996;2022-12-29T07:44:37;97936.94;;;3.65;58.86
39357;BME280;25077;50.302;18.996;2022-12-29T07:47:50;97937.53;;;3.70;59.24
39357;BME280;25077;50.302;18.996;2022-12-29T07:50:54;97941.34;;;3.69;60.31
39357;BME280;25077;50.302;18.996;2022-12-29T07:53:56;97942.13;;;3.70;59.61
39357;BME280;25077;50.302;18.996;2022-12-29T08:01:27;97926.97;;;3.74;60.08
39357;BME280;25077;50.302;18.996;2022-12-29T08:04:29;97923.19;;;3.75;59.02
39357;BME280;25077;50.302;18.996;2022-12-29T08:07:32;97935.78;;;3.74;59.98
39357;BME280;25077;50.302;18.996;2022-12-29T08:10:34;97932.63;;;3.81;59.58
39357;BME280;25077;50.302;18.996;2022-12-29T08:18:04;97924.72;;;3.84;60.29
39357;BME280;25077;50.302;18.996;2022-12-29T08:21:06;97924.19;;;3.91;59.79
39357;BME280;25077;50.302;18.996;2022-12-29T08:24:10;97931.34;;;3.87;59.27
39357;BME280;25077;50.302;18.996;2022-12-29T08:27:12;97934.75;;;3.96;60.09
39357;BME280;25077;50.302;18.996;2022-12-29T08:30:14;97927.19;;;3.98;60.39
39357;BME280;25077;50.302;18.996;2022-12-29T08:33:17;97927.31;;;4.02;60.49
39357;BME280;25077;50.302;18.996;2022-12-29T08:36:19;97934.56;;;4.01;59.50
39357;BME280;25077;50.302;18.996;2022-12-29T08:39:22;97936.78;;;3.99;60.52
39357;BME280;25077;50.302;18.996;2022-12-29T08:46:51;97947.03;;;3.97;59.57
39357;BME280;25077;50.302;18.996;2022-12-29T08:49:53;97954.09;;;4.02;59.61
39357;BME280;25077;50.302;18.996;2022-12-29T08:52:55;97943.91;;;3.95;59.80
39357;BME280;25077;50.302;18.996;2022-12-29T08:56:00;97938.03;;;4.02;59.82
39357;BME280;25077;50.302;18.996;2022-12-29T08:59:02;97933.59;;;4.06;60.28
39357;BME280;25077;50.302;18.996;2022-12-29T09:02:08;97943.34;;;4.10;59.88
39357;BME280;25077;50.302;18.996;2022-12-29T09:05:11;97950.88;;;4.17;60.13
39357;BME280;25077;50.302;18.996;2022-12-29T09:08:14;97948.84;;;4.23;60.11
39357;BME280;25077;50.302;18.996;2022-12-29T09:15:45;97925.06;;;4.42;60.06
39357;BME280;25077;50.302;18.996;2022-12-29T09:18:47;97934.75;;;4.55;60.08
39357;BME280;25077;50.302;18.996;2022-12-29T09:21:49;97946.13;;;4.52;59.52
39357;BME280;25077;50.302;18.996;2022-12-29T09:24:51;97950.47;;;4.65;59.82
39357;BME280;25077;50.302;18.996;2022-12-29T09:32:23;97944.75;;;4.88;58.24
39357;BME280;25077;50.302;18.996;2022-12-29T09:35:25;97948.09;;;5.06;58.47
39357;BME280;25077;50.302;18.996;2022-12-29T09:38:28;97936.16;;;5.15;58.78
39357;BME280;25077;50.302;18.996;2022-12-29T09:41:36;97934.81;;;5.21;58.42
39357;BME280;25077;50.302;18.996;2022-12-29T09:44:49;97943.59;;;5.31;57.92
39357;BME280;25077;50.302;18.996;2022-12-29T09:47:55;97933.75;;;5.35;58.41
39357;BME280;25077;50.302;18.996;2022-12-29T09:50:59;97937.91;;;5.44;57.02
39357;BME280;25077;50.302;18.996;2022-12-29T09:54:19;97930.47;;;5.62;57.37
39357;BME280;25077;50.302;18.996;2022-12-29T10:01:54;97925.78;;;5.71;57.44
39357;BME280;25077;50.302;18.996;2022-12-29T10:05:01;97929.94;;;5.81;57.51
39357;BME280;25077;50.302;18.996;2022-12-29T10:08:22;97926.69;;;5.88;57.00
39357;BME280;25077;50.302;18.996;2022-12-29T10:11:35;97920.44;;;5.96;57.39
39357;BME280;25077;50.302;18.996;2022-12-29T10:14:55;97915.16;;;5.99;56.09
39357;BME280;25077;50.302;18.996;2022-12-29T10:18:05;97917.50;;;6.01;56.30
39357;BME280;25077;50.302;18.996;2022-12-29T10:21:18;97918.19;;;5.98;56.42
39357;BME280;25077;50.302;18.996;2022-12-29T10:24:26;97921.09;;;6.05;57.99
39357;BME280;25077;50.302;18.996;2022-12-29T10:31:59;97905.63;;;6.14;57.37
39357;BME280;25077;50.302;18.996;2022-12-29T10:35:06;97904.84;;;6.14;56.59
39357;BME280;25077;50.302;18.996;2022-12-29T10:38:22;97888.59;;;6.10;56.04
39357;BME280;25077;50.302;18.996;2022-12-29T10:41:28;97886.59;;;6.07;56.63
39357;BME280;25077;50.302;18.996;2022-12-29T10:44:33;97880.97;;;6.12;56.73
39357;BME280;25077;50.302;18.996;2022-12-29T10:47:39;97879.63;;;6.06;57.25
39357;BME280;25077;50.302;18.996;2022-12-29T10:50:44;97880.75;;;6.17;56.88
39357;BME280;25077;50.302;18.996;2022-12-29T10:53:51;97878.94;;;6.21;56.94
39357;BME280;25077;50.302;18.996;2022-12-29T11:01:22;97881.81;;;6.41;56.61
39357;BME280;25077;50.302;18.996;2022-12-29T11:04:43;97880.44;;;6.59;56.05
39357;BME280;25077;50.302;18.996;2022-12-29T11:07:48;97886.16;;;6.58;55.72
39357;BME280;25077;50.302;18.996;2022-12-29T11:10:59;97878.53;;;6.60;55.80
39357;BME280;25077;50.302;18.996;2022-12-29T11:18:33;97872.97;;;6.80;55.34
39357;BME280;25077;50.302;18.996;2022-12-29T11:21:38;97887.34;;;6.85;54.36
39357;BME280;25077;50.302;18.996;2022-12-29T11:24:44;97877.09;;;6.90;54.25
39357;BME280;25077;50.302;18.996;2022-12-29T11:27:57;97871.34;;;7.04;54.21
39357;BME280;25077;50.302;18.996;2022-12-29T11:31:01;97885.59;;;7.20;55.23
39357;BME280;25077;50.302;18.996;2022-12-29T11:34:06;97887.13;;;7.49;55.15
39357;BME280;25077;50.302;18.996;2022-12-29T11:37:12;97879.28;;;7.60;54.73
39357;BME280;25077;50.302;18.996;2022-12-29T11:40:18;97893.56;;;7.45;53.60
39357;BME280;25077;50.302;18.996;2022-12-29T11:47:50;97890.78;;;7.13;54.12
39357;BME280;25077;50.302;18.996;2022-12-29T11:50:56;97880.78;;;6.98;54.61
39357;BME280;25077;50.302;18.996;2022-12-29T11:54:01;97874.34;;;7.02;55.53
39357;BME280;25077;50.302;18.996;2022-12-29T11:57:10;97872.06;;;6.89;54.67
39357;BME280;25077;50.302;18.996;2022-12-29T12:00:16;97882.41;;;6.87;55.28
39357;BME280;25077;50.302;18.996;2022-12-29T12:03:23;97875.06;;;6.99;55.53
39357;BME280;25077;50.302;18.996;2022-12-29T12:06:27;97878.28;;;7.05;55.65
39357;BME280;25077;50.302;18.996;2022-12-29T12:09:34;97886.88;;;7.11;54.83
39357;BME280;25077;50.302;18.996;2022-12-29T12:17:30;97877.91;;;7.50;54.20
39357;BME280;25077;50.302;18.996;2022-12-29T12:20:50;97880.63;;;7.66;54.02
39357;BME280;25077;50.302;18.996;2022-12-29T12:24:16;97873.63;;;7.65;52.76
39357;BME280;25077;50.302;18.996;2022-12-29T12:31:31;97883.91;;;7.59;53.02
39357;BME280;25077;50.302;18.996;2022-12-29T12:34:41;97862.84;;;7.65;53.71
39357;BME280;25077;50.302;18.996;2022-12-29T12:38:06;97860.63;;;7.67;52.93
39357;BME280;25077;50.302;18.996;2022-12-29T12:41:17;97853.47;;;7.59;55.03
39357;BME280;25077;50.302;18.996;2022-12-29T12:49:06;97851.38;;;7.37;55.64
39357;BME280;25077;50.302;18.996;2022-12-29T12:52:17;97848.16;;;7.31;55.49
39357;BME280;25077;50.302;18.996;2022-12-29T12:55:34;97837.84;;;7.33;55.65
39357;BME280;25077;50.302;18.996;2022-12-29T12:58:44;97832.19;;;7.38;55.61
39357;BME280;25077;50.302;18.996;2022-12-29T13:01:58;97834.28;;;7.45;55.00
39357;BME280;25077;50.302;18.996;2022-12-29T13:05:17;97851.03;;;7.54;54.68
39357;BME280;25077;50.302;18.996;2022-12-29T13:08:38;97852.53;;;7.51;54.41
39357;BME280;25077;50.302;18.996;2022-12-29T13:11:56;97841.84;;;7.55;54.80
39357;BME280;25077;50.302;18.996;2022-12-29T13:19:30;97825.13;;;7.65;54.38
39357;BME280;25077;50.302;18.996;2022-12-29T13:22:39;97840.25;;;7.70;54.43
39357;BME280;25077;50.302;18.996;2022-12-29T13:25:50;97840.09;;;7.78;53.81
39357;BME280;25077;50.302;18.996;2022-12-29T13:28:58;97851.19;;;7.93;53.02
39357;BME280;25077;50.302;18.996;2022-12-29T13:32:13;97850.38;;;8.08;52.72
39357;BME280;25077;50.302;18.996;2022-12-29T13:35:45;97840.59;;;8.19;52.87
39357;BME280;25077;50.302;18.996;2022-12-29T13:39:01;97847.91;;;8.19;53.43
39357;BME280;25077;50.302;18.996;2022-12-29T13:42:06;97856.78;;;8.19;53.96
39357;BME280;25077;50.302;18.996;2022-12-29T13:49:38;97860.75;;;8.06;53.44
39357;BME280;25077;50.302;18.996;2022-12-29T13:52:45;97858.38;;;8.04;54.20
39357;BME280;25077;50.302;18.996;2022-12-29T13:55:53;97851.34;;;8.00;53.77
39357;BME280;25077;50.302;18.996;2022-12-29T13:59:02;97850.75;;;7.91;54.61
39357;BME280;25077;50.302;18.996;2022-12-29T14:02:13;97858.84;;;7.91;53.94
39357;BME280;25077;50.302;18.996;2022-12-29T14:05:31;97854.50;;;7.86;53.91
39357;BME280;25077;50.302;18.996;2022-12-29T14:08:34;97863.31;;;7.83;54.92
39357;BME280;25077;50.302;18.996;2022-12-29T14:11:39;97863.22;;;7.79;54.49
39357;BME280;25077;50.302;18.996;2022-12-29T14:19:13;97854.88;;;7.53;55.56
39357;BME280;25077;50.302;18.996;2022-12-29T14:22:24;97847.13;;;7.36;56.19
39357;BME280;25077;50.302;18.996;2022-12-29T14:25:59;97850.94;;;7.35;56.61
39357;BME280;25077;50.302;18.996;2022-12-29T14:29:43;97846.00;;;7.37;56.35
39357;BME280;25077;50.302;18.996;2022-12-29T14:33:01;97849.81;;;7.36;56.33
39357;BME280;25077;50.302;18.996;2022-12-29T14:36:19;97842.25;;;7.25;56.57
39357;BME280;25077;50.302;18.996;2022-12-29T14:39:41;97848.59;;;7.17;56.83
39357;BME280;25077;50.302;18.996;2022-12-29T14:42:45;97843.69;;;7.07;57.54
39357;BME280;25077;50.302;18.996;2022-12-29T14:50:17;97842.75;;;6.71;58.53
39357;BME280;25077;50.302;18.996;2022-12-29T14:53:42;97854.75;;;6.62;58.65
39357;BME280;25077;50.302;18.996;2022-12-29T14:56:46;97848.41;;;6.54;58.74
39357;BME280;25077;50.302;18.996;2022-12-29T14:59:53;97853.78;;;6.54;58.93
39357;BME280;25077;50.302;18.996;2022-12-29T15:03:03;97855.22;;;6.51;59.08
39357;BME280;25077;50.302;18.996;2022-12-29T15:06:07;97868.69;;;6.51;59.11
39357;BME280;25077;50.302;18.996;2022-12-29T15:09:23;97870.59;;;6.51;59.11
39357;BME280;25077;50.302;18.996;2022-12-29T15:12:34;97868.69;;;6.51;59.28
39357;BME280;25077;50.302;18.996;2022-12-29T15:20:17;97872.84;;;6.49;59.87
39357;BME280;25077;50.302;18.996;2022-12-29T15:23:23;97863.53;;;6.46;59.35
39357;BME280;25077;50.302;18.996;2022-12-29T15:26:36;97854.25;;;6.44;59.54
39357;BME280;25077;50.302;18.996;2022-12-29T15:29:41;97845.50;;;6.47;59.33
39357;BME280;25077;50.302;18.996;2022-12-29T15:32:45;97850.44;;;6.45;59.34
39357;BME280;25077;50.302;18.996;2022-12-29T15:35:50;97838.78;;;6.41;59.37
39357;BME280;25077;50.302;18.996;2022-12-29T15:38:52;97850.66;;;6.40;59.45
39357;BME280;25077;50.302;18.996;2022-12-29T15:41:56;97854.38;;;6.35;59.27
39357;BME280;25077;50.302;18.996;2022-12-29T15:49:30;97845.31;;;6.27;59.26
39357;BME280;25077;50.302;18.996;2022-12-29T15:52:33;97846.09;;;6.28;58.45
39357;BME280;25077;50.302;18.996;2022-12-29T15:55:37;97849.56;;;6.28;59.09
39357;BME280;25077;50.302;18.996;2022-12-29T15:58:42;97849.13;;;6.26;59.06
39357;BME280;25077;50.302;18.996;2022-12-29T16:01:45;97858.34;;;6.25;58.97
39357;BME280;25077;50.302;18.996;2022-12-29T16:04:49;97861.56;;;6.31;58.79
39357;BME280;25077;50.302;18.996;2022-12-29T16:07:53;97859.19;;;6.30;58.63
39357;BME280;25077;50.302;18.996;2022-12-29T16:10:56;97861.66;;;6.35;58.77
39357;BME280;25077;50.302;18.996;2022-12-29T16:18:27;97868.97;;;6.22;59.00
39357;BME280;25077;50.302;18.996;2022-12-29T16:21:34;97864.38;;;6.22;59.23
39357;BME280;25077;50.302;18.996;2022-12-29T16:24:39;97874.34;;;6.22;59.16
39357;BME280;25077;50.302;18.996;2022-12-29T16:27:42;97872.00;;;6.20;59.08
39357;BME280;25077;50.302;18.996;2022-12-29T16:35:17;97881.09;;;6.16;59.47
39357;BME280;25077;50.302;18.996;2022-12-29T16:38:22;97885.69;;;6.15;59.41
39357;BME280;25077;50.302;18.996;2022-12-29T16:41:31;97887.03;;;6.09;58.68
39357;BME280;25077;50.302;18.996;2022-12-29T16:44:33;97886.25;;;6.09;59.83
39357;BME280;25077;50.302;18.996;2022-12-29T16:47:35;97879.63;;;6.06;59.80
39357;BME280;25077;50.302;18.996;2022-12-29T16:50:39;97893.53;;;6.08;59.95
39357;BME280;25077;50.302;18.996;2022-12-29T16:53:48;97890.16;;;6.11;59.53
39357;BME280;25077;50.302;18.996;2022-12-29T16:56:52;97892.06;;;6.11;59.81
39357;BME280;25077;50.302;18.996;2022-12-29T17:04:22;97887.91;;;6.01;59.87
39357;BME280;25077;50.302;18.996;2022-12-29T17:07:25;97875.59;;;6.00;60.01
39357;BME280;25077;50.302;18.996;2022-12-29T17:10:29;97883.22;;;5.98;60.17
39357;BME280;25077;50.302;18.996;2022-12-29T17:13:45;97872.03;;;5.96;60.29
39357;BME280;25077;50.302;18.996;2022-12-29T17:16:47;97865.84;;;5.95;60.09
39357;BME280;25077;50.302;18.996;2022-12-29T17:19:51;97865.00;;;5.91;60.05
39357;BME280;25077;50.302;18.996;2022-12-29T17:22:54;97873.72;;;5.88;59.85
39357;BME280;25077;50.302;18.996;2022-12-29T17:25:58;97882.00;;;5.83;60.25
39357;BME280;25077;50.302;18.996;2022-12-29T17:33:27;97885.25;;;5.77;60.34
39357;BME280;25077;50.302;18.996;2022-12-29T17:36:31;97896.22;;;5.71;61.03
39357;BME280;25077;50.302;18.996;2022-12-29T17:39:33;97895.44;;;5.71;61.21
39357;BME280;25077;50.302;18.996;2022-12-29T17:42:42;97891.31;;;5.73;61.47
39357;BME280;25077;50.302;18.996;2022-12-29T17:50:13;97892.41;;;5.72;61.15
39357;BME280;25077;50.302;18.996;2022-12-29T17:53:19;97887.03;;;5.72;61.50
39357;BME280;25077;50.302;18.996;2022-12-29T17:56:22;97881.09;;;5.67;61.36
39357;BME280;25077;50.302;18.996;2022-12-29T17:59:25;97872.47;;;5.61;60.97
39357;BME280;25077;50.302;18.996;2022-12-29T18:02:29;97880.44;;;5.58;61.40
39357;BME280;25077;50.302;18.996;2022-12-29T18:05:31;97880.66;;;5.53;61.81
39357;BME280;25077;50.302;18.996;2022-12-29T18:08:34;97890.38;;;5.45;61.69
39357;BME280;25077;50.302;18.996;2022-12-29T18:11:39;97890.59;;;5.40;62.19
39357;BME280;25077;50.302;18.996;2022-12-29T18:19:10;97886.75;;;5.29;62.67
39357;BME280;25077;50.302;18.996;2022-12-29T18:22:12;97900.50;;;5.27;62.59
39357;BME280;25077;50.302;18.996;2022-12-29T18:25:24;97894.56;;;5.21;62.25
39357;BME280;25077;50.302;18.996;2022-12-29T18:28:28;97896.16;;;5.23;62.11
39357;BME280;25077;50.302;18.996;2022-12-29T18:36:00;97900.59;;;5.18;62.63
39357;BME280;25077;50.302;18.996;2022-12-29T18:39:02;97893.88;;;5.12;62.76
39357;BME280;25077;50.302;18.996;2022-12-29T18:42:05;97900.16;;;5.16;63.21
39357;BME280;25077;50.302;18.996;2022-12-29T18:45:15;97894.66;;;5.13;63.49
39357;BME280;25077;50.302;18.996;2022-12-29T18:48:19;97901.44;;;5.10;62.86
39357;BME280;25077;50.302;18.996;2022-12-29T18:51:23;97903.78;;;5.00;63.68
39357;BME280;25077;50.302;18.996;2022-12-29T18:54:27;97891.94;;;5.01;63.43
39357;BME280;25077;50.302;18.996;2022-12-29T18:57:30;97891.47;;;4.99;63.01
39357;BME280;25077;50.302;18.996;2022-12-29T19:05:00;97878.13;;;4.90;63.10
39357;BME280;25077;50.302;18.996;2022-12-29T19:08:04;97886.38;;;4.85;63.71
39357;BME280;25077;50.302;18.996;2022-12-29T19:11:06;97892.97;;;4.87;63.05
39357;BME280;25077;50.302;18.996;2022-12-29T19:14:14;97904.84;;;4.86;64.03
39357;BME280;25077;50.302;18.996;2022-12-29T19:21:44;97904.50;;;4.88;63.49
39357;BME280;25077;50.302;18.996;2022-12-29T19:24:47;97914.69;;;4.82;63.07
39357;BME280;25077;50.302;18.996;2022-12-29T19:27:50;97915.19;;;4.76;64.29
39357;BME280;25077;50.302;18.996;2022-12-29T19:30:56;97920.53;;;4.76;63.07
39357;BME280;25077;50.302;18.996;2022-12-29T19:33:59;97921.22;;;4.73;63.79
39357;BME280;25077;50.302;18.996;2022-12-29T19:37:02;97917.75;;;4.72;63.78
39357;BME280;25077;50.302;18.996;2022-12-29T19:40:08;97909.56;;;4.68;64.03
39357;BME280;25077;50.302;18.996;2022-12-29T19:43:11;97920.50;;;4.63;63.80
39357;BME280;25077;50.302;18.996;2022-12-29T19:50:42;97904.41;;;4.63;64.04
39357;BME280;25077;50.302;18.996;2022-12-29T19:53:44;97916.25;;;4.62;63.84
39357;BME280;25077;50.302;18.996;2022-12-29T19:56:48;97910.00;;;4.71;63.38
39357;BME280;25077;50.302;18.996;2022-12-29T19:59:51;97905.56;;;4.75;63.09